Time;durP1;ratioP1;P1;durP2;ratioP2;P2;SDS_P1;SDS_P2;PMS_P1;PMS_P2;Temp;Humidity;BMP_temperature;BMP_pressure;BME280_temperature;BME280_humidity;BME280_pressure;Samples;Min_cycle;Max_cycle;Signal;HPM_P1;HPM_P2
2022/11/18 00:00:37;;;;;;;67.47;39.20;;;;;;;;;;4435305;32;20632;-82
2022/11/18 00:03:03;;;;;;;74.17;38.10;;;;;;;;;;4435421;32;20231;-81
2022/11/18 00:05:30;;;;;;;98.67;49.50;;;;;;;;;;4435497;32;20236;-82
2022/11/18 00:07:57;;;;;;;107.63;49.03;;;;;;;;;;4435204;32;20643;-82
2022/11/18 00:10:26;;;;;;;111.90;52.33;;;;;;;;;;4435727;32;20220;-82
2022/11/18 00:15:37;;;;;;;127.50;53.03;;;;;;;;;;4435373;32;20235;-83
2022/11/18 00:18:04;;;;;;;128.83;57.80;;;;;;;;;;4435444;32;20617;-82
2022/11/18 00:20:30;;;;;;;117.13;53.47;;;;;;;;;;4435714;32;20750;-82
2022/11/18 00:22:57;;;;;;;120.67;50.57;;;;;;;;;;4435105;32;20244;-83
2022/11/18 00:25:25;;;;;;;102.13;38.10;;;;;;;;;;4434655;32;20220;-82
2022/11/18 00:27:53;;;;;;;59.07;28.87;;;;;;;;;;4435202;32;20241;-83
2022/11/18 00:30:20;;;;;;;40.30;21.27;;;;;;;;;;4435308;32;20285;-84
2022/11/18 00:32:47;;;;;;;37.10;17.33;;;;;;;;;;4435124;32;20252;-85
2022/11/18 00:35:15;;;;;;;36.80;15.90;;;;;;;;;;4434939;32;20748;-83
2022/11/18 00:37:41;;;;;;;42.57;17.60;;;;;;;;;;4449481;32;21002;-82
2022/11/18 00:40:09;;;;;;;43.37;20.67;;;;;;;;;;4450970;32;20280;-81
2022/11/18 00:42:52;;;;;;;58.67;22.90;;;;;;;;;;4450829;32;20244;-82
2022/11/18 00:45:19;;;;;;;44.17;23.30;;;;;;;;;;4450252;32;20329;-83
2022/11/18 00:47:47;;;;;;;41.83;21.80;;;;;;;;;;4450366;32;20301;-82
2022/11/18 00:50:13;;;;;;;42.23;19.03;;;;;;;;;;4450483;32;20272;-83
2022/11/18 00:52:41;;;;;;;48.60;20.90;;;;;;;;;;4444334;32;20244;-85
2022/11/18 00:55:08;;;;;;;34.93;18.47;;;;;;;;;;4434761;32;20293;-83
2022/11/18 00:57:36;;;;;;;37.90;19.17;;;;;;;;;;4434946;32;20305;-82
2022/11/18 01:00:05;;;;;;;52.90;20.60;;;;;;;;;;4434988;32;20700;-82
2022/11/18 01:02:32;;;;;;;36.77;20.23;;;;;;;;;;4434688;32;20281;-84
2022/11/18 01:04:59;;;;;;;47.33;22.60;;;;;;;;;;4434682;32;20244;-83
2022/11/18 01:07:25;;;;;;;49.40;24.47;;;;;;;;;;4434547;32;20945;-83
2022/11/18 01:09:52;;;;;;;45.97;23.13;;;;;;;;;;4430518;32;20240;-81
2022/11/18 01:15:05;;;;;;;45.10;23.57;;;;;;;;;;4419199;32;20260;-83
2022/11/18 01:17:32;;;;;;;51.03;23.70;;;;;;;;;;4419124;32;20290;-83
2022/11/18 01:19:59;;;;;;;46.63;23.23;;;;;;;;;;4431246;32;20242;-82
2022/11/18 01:22:26;;;;;;;56.60;21.17;;;;;;;;;;4434786;32;20296;-81
2022/11/18 01:24:52;;;;;;;77.70;18.67;;;;;;;;;;4435078;32;20261;-83
2022/11/18 01:27:20;;;;;;;44.30;16.10;;;;;;;;;;4435525;32;20890;-82
2022/11/18 01:29:46;;;;;;;38.53;19.90;;;;;;;;;;4438156;32;20234;-84
2022/11/18 01:32:14;;;;;;;62.13;27.00;;;;;;;;;;4452850;32;20297;-81
2022/11/18 01:34:41;;;;;;;38.30;20.03;;;;;;;;;;4453844;32;20337;-82
2022/11/18 01:37:08;;;;;;;54.33;18.50;;;;;;;;;;4445123;32;20264;-87
2022/11/18 01:39:34;;;;;;;51.00;21.57;;;;;;;;;;4445933;32;20581;-85
2022/11/18 01:42:01;;;;;;;37.90;17.43;;;;;;;;;;4438015;32;20266;-83
2022/11/18 01:44:58;;;;;;;29.57;15.47;;;;;;;;;;4436225;32;20281;-85
2022/11/18 01:47:28;;;;;;;45.23;20.07;;;;;;;;;;4435714;32;20715;-82
2022/11/18 01:49:55;;;;;;;49.10;22.57;;;;;;;;;;4436553;32;20228;-83
2022/11/18 01:52:23;;;;;;;45.47;21.63;;;;;;;;;;4438756;32;20322;-81
2022/11/18 01:54:55;;;;;;;51.90;21.10;;;;;;;;;;4439409;32;20311;-81
2022/11/18 01:57:26;;;;;;;46.13;21.97;;;;;;;;;;4439540;32;20225;-82
2022/11/18 01:59:56;;;;;;;66.90;18.27;;;;;;;;;;4440486;32;20231;-85
2022/11/18 02:02:24;;;;;;;41.07;18.40;;;;;;;;;;4438246;32;20708;-82
2022/11/18 02:04:55;;;;;;;38.17;18.00;;;;;;;;;;4435782;32;20232;-81
2022/11/18 02:07:23;;;;;;;43.13;21.50;;;;;;;;;;4437661;32;20589;-84
2022/11/18 02:09:51;;;;;;;54.73;21.77;;;;;;;;;;4434384;32;20400;-84
2022/11/18 02:12:19;;;;;;;27.83;17.90;;;;;;;;;;4422180;32;20237;-82
2022/11/18 02:14:47;;;;;;;30.53;18.37;;;;;;;;;;4425397;32;20595;-83
2022/11/18 02:17:24;;;;;;;26.10;15.63;;;;;;;;;;4436290;32;20301;-84
2022/11/18 02:20:17;;;;;;;25.43;15.90;;;;;;;;;;4434234;32;20263;-85
2022/11/18 02:23:18;;;;;;;18.63;13.03;;;;;;;;;;4433641;32;20337;-83
2022/11/18 02:26:02;;;;;;;16.93;12.10;;;;;;;;;;4434365;32;20260;-83
2022/11/18 02:28:38;;;;;;;23.80;12.60;;;;;;;;;;4424789;32;20308;-83
2022/11/18 02:31:11;;;;;;;22.03;14.57;;;;;;;;;;4418344;32;20256;-85
2022/11/18 02:33:43;;;;;;;29.40;16.03;;;;;;;;;;4418604;32;20213;-84
2022/11/18 02:36:17;;;;;;;25.97;17.83;;;;;;;;;;4418534;32;20295;-85
2022/11/18 02:38:48;;;;;;;28.10;18.37;;;;;;;;;;4418580;32;20797;-83
2022/11/18 02:41:18;;;;;;;26.03;16.87;;;;;;;;;;4417911;32;20661;-86
2022/11/18 02:43:49;;;;;;;29.43;15.00;;;;;;;;;;4418115;32;20318;-88
2022/11/18 02:46:24;;;;;;;21.80;13.57;;;;;;;;;;4418299;32;20239;-85
2022/11/18 02:48:53;;;;;;;27.47;14.80;;;;;;;;;;4418255;32;20322;-85
2022/11/18 02:51:25;;;;;;;27.77;13.73;;;;;;;;;;4418084;32;20220;-83
2022/11/18 02:53:55;;;;;;;21.80;13.73;;;;;;;;;;4430958;32;20275;-87
2022/11/18 02:56:22;;;;;;;26.63;13.20;;;;;;;;;;4431935;32;20419;-83
2022/11/18 02:58:49;;;;;;;21.43;11.27;;;;;;;;;;4432905;32;20229;-88
2022/11/18 03:01:21;;;;;;;23.30;10.13;;;;;;;;;;4432971;32;20297;-87
2022/11/18 03:03:47;;;;;;;24.77;9.90;;;;;;;;;;4433510;32;20223;-83
2022/11/18 03:06:26;;;;;;;22.90;10.30;;;;;;;;;;4432821;32;20236;-83
2022/11/18 03:09:00;;;;;;;17.50;9.17;;;;;;;;;;4433099;32;20228;-83
2022/11/18 03:11:31;;;;;;;13.60;7.80;;;;;;;;;;4424286;32;20257;-84
2022/11/18 03:14:16;;;;;;;14.17;8.00;;;;;;;;;;4433542;32;20257;-83
2022/11/18 03:16:51;;;;;;;17.33;8.50;;;;;;;;;;4433416;32;20233;-85
2022/11/18 03:19:22;;;;;;;17.80;8.63;;;;;;;;;;4432982;32;20611;-83
2022/11/18 03:21:57;;;;;;;16.37;9.97;;;;;;;;;;4432967;32;20237;-85
2022/11/18 03:24:29;;;;;;;18.70;9.63;;;;;;;;;;4418150;32;20220;-83
2022/11/18 03:27:02;;;;;;;18.90;8.70;;;;;;;;;;4417782;32;20309;-85
2022/11/18 03:29:32;;;;;;;14.33;8.27;;;;;;;;;;4432616;32;20776;-85
2022/11/18 03:32:04;;;;;;;18.53;10.13;;;;;;;;;;4432828;32;20566;-85
2022/11/18 03:34:36;;;;;;;21.57;10.60;;;;;;;;;;4433139;32;20296;-83
2022/11/18 03:37:06;;;;;;;19.13;11.87;;;;;;;;;;4433186;32;20233;-83
2022/11/18 03:39:37;;;;;;;20.43;10.93;;;;;;;;;;4433246;32;20274;-83
2022/11/18 03:42:08;;;;;;;20.07;10.57;;;;;;;;;;4433263;32;20301;-83
2022/11/18 03:44:38;;;;;;;14.17;9.57;;;;;;;;;;4433011;32;20232;-83
2022/11/18 03:47:10;;;;;;;15.13;8.50;;;;;;;;;;4433048;32;20297;-84
2022/11/18 03:49:46;;;;;;;16.93;8.47;;;;;;;;;;4433358;32;20225;-84
2022/11/18 03:52:19;;;;;;;9.13;6.20;;;;;;;;;;4430136;32;20256;-84
2022/11/18 03:54:49;;;;;;;9.80;6.07;;;;;;;;;;4417998;32;20273;-84
2022/11/18 03:57:20;;;;;;;10.37;6.47;;;;;;;;;;4421120;32;20253;-83
2022/11/18 03:59:51;;;;;;;10.37;6.93;;;;;;;;;;4433890;32;20240;-84
2022/11/18 04:02:22;;;;;;;15.53;9.00;;;;;;;;;;4435824;32;20237;-83
2022/11/18 04:04:51;;;;;;;14.30;8.40;;;;;;;;;;4435698;32;20228;-83
2022/11/18 04:07:24;;;;;;;13.77;7.83;;;;;;;;;;4435291;32;20337;-82
2022/11/18 04:09:56;;;;;;;12.13;7.33;;;;;;;;;;4435552;32;20335;-82
2022/11/18 04:12:27;;;;;;;16.33;8.67;;;;;;;;;;4435364;32;20663;-83
2022/11/18 04:14:55;;;;;;;14.33;9.30;;;;;;;;;;4435468;32;20646;-84
2022/11/18 04:17:26;;;;;;;19.77;11.67;;;;;;;;;;4435853;32;20295;-83
2022/11/18 04:19:54;;;;;;;29.70;16.40;;;;;;;;;;4435391;32;20740;-83
2022/11/18 04:22:22;;;;;;;22.43;13.10;;;;;;;;;;4435495;32;20281;-85
2022/11/18 04:24:48;;;;;;;32.00;19.80;;;;;;;;;;4435431;32;20255;-84
2022/11/18 04:27:15;;;;;;;35.03;20.40;;;;;;;;;;4434425;32;20221;-84
2022/11/18 04:29:43;;;;;;;15.47;10.83;;;;;;;;;;4419931;32;20797;-85
2022/11/18 04:32:10;;;;;;;8.40;5.97;;;;;;;;;;4419902;32;20232;-85
2022/11/18 04:34:38;;;;;;;12.93;5.90;;;;;;;;;;4419816;32;20323;-85
2022/11/18 04:37:04;;;;;;;11.87;5.17;;;;;;;;;;4420264;32;20225;-85
2022/11/18 04:39:31;;;;;;;10.00;5.23;;;;;;;;;;4419624;32;20323;-83
2022/11/18 04:41:59;;;;;;;8.50;4.93;;;;;;;;;;4420169;32;20236;-83
2022/11/18 04:44:27;;;;;;;10.13;5.77;;;;;;;;;;4419702;32;20298;-82
2022/11/18 04:46:55;;;;;;;13.10;5.97;;;;;;;;;;4418893;32;20278;-85
2022/11/18 04:49:22;;;;;;;13.33;5.90;;;;;;;;;;4418194;32;20320;-81
2022/11/18 04:51:51;;;;;;;11.50;5.30;;;;;;;;;;4419572;32;20244;-84
2022/11/18 04:54:18;;;;;;;15.03;6.57;;;;;;;;;;4434841;32;20600;-84
2022/11/18 04:56:46;;;;;;;15.67;8.03;;;;;;;;;;4434936;32;20217;-83
2022/11/18 04:59:14;;;;;;;16.80;7.43;;;;;;;;;;4434562;32;20275;-84
2022/11/18 05:01:41;;;;;;;16.97;8.17;;;;;;;;;;4434729;32;20291;-83
2022/11/18 05:04:08;;;;;;;15.43;9.53;;;;;;;;;;4434431;32;20240;-82
2022/11/18 05:06:35;;;;;;;14.27;9.70;;;;;;;;;;4434072;32;20493;-82
2022/11/18 05:09:03;;;;;;;15.23;9.93;;;;;;;;;;4434870;32;20337;-84
2022/11/18 05:14:15;;;;;;;17.23;10.67;;;;;;;;;;4433594;32;20320;-83
2022/11/18 05:16:42;;;;;;;17.97;9.90;;;;;;;;;;4434449;32;20693;-84
2022/11/18 05:19:09;;;;;;;18.23;9.30;;;;;;;;;;4434420;32;20297;-83
2022/11/18 05:21:35;;;;;;;22.27;9.93;;;;;;;;;;4434565;32;20219;-83
2022/11/18 05:24:05;;;;;;;21.03;11.50;;;;;;;;;;4434593;32;20268;-84
2022/11/18 05:26:32;;;;;;;15.87;10.87;;;;;;;;;;4436817;32;20680;-84
2022/11/18 05:28:59;;;;;;;21.80;12.10;;;;;;;;;;4444975;32;20213;-85
2022/11/18 05:31:26;;;;;;;20.80;12.57;;;;;;;;;;4454275;32;20201;-85
2022/11/18 05:33:52;;;;;;;18.93;13.33;;;;;;;;;;4451914;32;20263;-82
2022/11/18 05:36:21;;;;;;;19.67;12.40;;;;;;;;;;4440129;32;20274;-82
2022/11/18 05:38:48;;;;;;;23.47;12.83;;;;;;;;;;4437354;32;20254;-85
2022/11/18 05:43:58;;;;;;;15.20;10.93;;;;;;;;;;4433617;32;20585;-84
2022/11/18 05:46:26;;;;;;;17.87;11.80;;;;;;;;;;4434387;32;20222;-84
2022/11/18 05:48:53;;;;;;;18.77;13.43;;;;;;;;;;4434098;32;20281;-83
2022/11/18 05:51:20;;;;;;;20.53;13.50;;;;;;;;;;4434054;32;20285;-84
2022/11/18 05:53:49;;;;;;;22.00;13.23;;;;;;;;;;4433508;32;20254;-83
2022/11/18 05:56:21;;;;;;;19.10;11.80;;;;;;;;;;4433766;32;20289;-84
2022/11/18 05:58:48;;;;;;;34.70;15.87;;;;;;;;;;4433455;32;20696;-82
2022/11/18 06:01:20;;;;;;;28.47;17.47;;;;;;;;;;4433374;32;20328;-84
2022/11/18 06:03:48;;;;;;;29.87;16.23;;;;;;;;;;4433432;32;20619;-84
2022/11/18 06:06:19;;;;;;;28.13;17.73;;;;;;;;;;4428747;32;20290;-85
2022/11/18 06:08:49;;;;;;;25.90;17.23;;;;;;;;;;4417013;32;20336;-84
2022/11/18 06:11:19;;;;;;;25.57;17.60;;;;;;;;;;4429706;32;20236;-84
2022/11/18 06:13:50;;;;;;;29.97;19.53;;;;;;;;;;4432933;32;20947;-84
2022/11/18 06:16:20;;;;;;;31.80;21.40;;;;;;;;;;4434749;32;20272;-83
2022/11/18 06:18:47;;;;;;;29.23;17.87;;;;;;;;;;4435218;32;20220;-86
2022/11/18 06:21:14;;;;;;;29.80;19.47;;;;;;;;;;4432864;32;20596;-84
2022/11/18 06:23:42;;;;;;;33.57;23.33;;;;;;;;;;4432736;32;20269;-83
2022/11/18 06:26:11;;;;;;;20.30;14.80;;;;;;;;;;4433090;32;20278;-81
2022/11/18 06:28:40;;;;;;;22.87;13.17;;;;;;;;;;4432575;32;20256;-82
2022/11/18 06:31:07;;;;;;;17.43;10.47;;;;;;;;;;4432890;32;20351;-86
2022/11/18 06:33:34;;;;;;;15.23;9.93;;;;;;;;;;4433264;32;20221;-81
2022/11/18 06:36:01;;;;;;;14.40;10.23;;;;;;;;;;4432932;32;20253;-81
2022/11/18 06:38:28;;;;;;;15.97;10.77;;;;;;;;;;4435435;32;20254;-80
2022/11/18 06:41:02;;;;;;;17.20;10.93;;;;;;;;;;4435658;32;20740;-82
2022/11/18 06:43:42;;;;;;;19.00;12.03;;;;;;;;;;4433337;32;20257;-81
2022/11/18 06:48:56;;;;;;;18.50;13.53;;;;;;;;;;4432319;32;20207;-83
2022/11/18 06:51:24;;;;;;;25.47;16.73;;;;;;;;;;4432310;32;20748;-88
2022/11/18 06:53:51;;;;;;;24.27;17.03;;;;;;;;;;4420193;32;20217;-85
2022/11/18 06:56:19;;;;;;;17.83;13.40;;;;;;;;;;4422341;32;20260;-89
2022/11/18 06:58:46;;;;;;;17.07;13.93;;;;;;;;;;4432389;32;20252;-89
2022/11/18 07:01:17;;;;;;;16.13;11.30;;;;;;;;;;4431309;32;20241;-82
2022/11/18 07:03:45;;;;;;;15.80;11.17;;;;;;;;;;4438201;32;20305;-86
2022/11/18 07:06:14;;;;;;;13.20;9.30;;;;;;;;;;4433130;32;20245;-87
2022/11/18 07:08:41;;;;;;;13.63;9.63;;;;;;;;;;4432469;32;20703;-84
2022/11/18 07:11:10;;;;;;;17.27;11.93;;;;;;;;;;4420670;32;20283;-87
2022/11/18 07:13:37;;;;;;;14.57;10.70;;;;;;;;;;4423205;32;20317;-83
2022/11/18 07:16:05;;;;;;;16.17;11.60;;;;;;;;;;4433131;32;20272;-85
2022/11/18 07:18:36;;;;;;;16.97;11.50;;;;;;;;;;4433171;32;20209;-84
2022/11/18 07:21:03;;;;;;;14.13;10.73;;;;;;;;;;4433444;32;20224;-85
2022/11/18 07:23:30;;;;;;;16.10;11.70;;;;;;;;;;4432322;32;20251;-85
2022/11/18 07:25:57;;;;;;;15.47;11.77;;;;;;;;;;4432959;32;20324;-86
2022/11/18 07:28:24;;;;;;;17.93;12.40;;;;;;;;;;4424273;32;20671;-86
2022/11/18 07:30:52;;;;;;;15.10;12.40;;;;;;;;;;4417774;32;20699;-88
2022/11/18 07:33:19;;;;;;;16.17;12.00;;;;;;;;;;4418040;32;20781;-86
2022/11/18 07:35:47;;;;;;;16.93;12.03;;;;;;;;;;4420583;32;20219;-89
2022/11/18 07:38:14;;;;;;;16.57;13.03;;;;;;;;;;4420453;32;20625;-86
2022/11/18 07:40:42;;;;;;;15.93;11.77;;;;;;;;;;4446654;32;20224;-84
2022/11/18 07:43:09;;;;;;;16.63;11.30;;;;;;;;;;4451040;32;20272;-86
2022/11/18 07:45:35;;;;;;;16.03;11.97;;;;;;;;;;4451911;32;20656;-87
2022/11/18 07:48:02;;;;;;;15.33;11.87;;;;;;;;;;4451032;32;20293;-86
2022/11/18 07:50:29;;;;;;;20.03;13.57;;;;;;;;;;4451100;32;20287;-86
2022/11/18 07:52:58;;;;;;;19.27;14.17;;;;;;;;;;4444197;32;20366;-87
2022/11/18 07:55:24;;;;;;;20.83;13.93;;;;;;;;;;4435608;32;20244;-87
2022/11/18 07:57:51;;;;;;;19.93;10.80;;;;;;;;;;4439793;32;20259;-88
2022/11/18 08:00:19;;;;;;;13.67;10.60;;;;;;;;;;4445291;32;20224;-84
2022/11/18 08:02:50;;;;;;;12.47;8.67;;;;;;;;;;4450718;32;20309;-84
2022/11/18 08:05:17;;;;;;;16.17;9.37;;;;;;;;;;4437671;32;20224;-87
2022/11/18 08:07:44;;;;;;;9.73;8.73;;;;;;;;;;4448356;32;20351;-87
2022/11/18 08:10:13;;;;;;;11.63;9.83;;;;;;;;;;4436070;32;20229;-87
2022/11/18 08:12:40;;;;;;;11.80;7.57;;;;;;;;;;4434989;32;20248;-83
2022/11/18 08:15:08;;;;;;;8.30;6.67;;;;;;;;;;4441358;32;20264;-85
2022/11/18 08:17:35;;;;;;;15.43;8.73;;;;;;;;;;4453459;32;20252;-84
2022/11/18 08:20:02;;;;;;;15.20;8.40;;;;;;;;;;4454009;32;20269;-84
2022/11/18 08:22:28;;;;;;;7.23;6.23;;;;;;;;;;4453504;32;20299;-85
2022/11/18 08:24:55;;;;;;;7.80;6.97;;;;;;;;;;4455798;32;20248;-84
2022/11/18 08:27:23;;;;;;;8.33;6.87;;;;;;;;;;4452006;32;20212;-84
2022/11/18 08:29:50;;;;;;;12.50;8.90;;;;;;;;;;4436936;32;20270;-84
2022/11/18 08:32:17;;;;;;;13.63;10.27;;;;;;;;;;4444369;32;20228;-85
2022/11/18 08:34:44;;;;;;;11.83;10.23;;;;;;;;;;4456228;32;20299;-85
2022/11/18 08:37:11;;;;;;;20.30;16.37;;;;;;;;;;4455424;32;20272;-85
2022/11/18 08:39:38;;;;;;;25.43;14.73;;;;;;;;;;4452504;32;20266;-84
2022/11/18 08:42:05;;;;;;;17.33;14.03;;;;;;;;;;4454192;32;20273;-84
2022/11/18 08:44:33;;;;;;;19.73;14.93;;;;;;;;;;4418539;32;20248;-87
2022/11/18 08:47:00;;;;;;;19.77;14.63;;;;;;;;;;4419015;32;20221;-85
2022/11/18 08:49:27;;;;;;;19.47;16.10;;;;;;;;;;4426994;32;20236;-86
2022/11/18 08:51:54;;;;;;;25.03;17.30;;;;;;;;;;4433950;32;20323;-85
2022/11/18 08:54:21;;;;;;;30.70;21.10;;;;;;;;;;4434601;32;20677;-85
2022/11/18 08:56:50;;;;;;;30.50;23.33;;;;;;;;;;4433683;32;20682;-85
2022/11/18 08:59:18;;;;;;;29.63;22.40;;;;;;;;;;4434194;32;20208;-86
2022/11/18 09:01:46;;;;;;;29.50;21.53;;;;;;;;;;4434045;32;20216;-85
2022/11/18 09:04:12;;;;;;;22.87;17.90;;;;;;;;;;4434561;32;20225;-84
2022/11/18 09:06:40;;;;;;;33.87;24.27;;;;;;;;;;4442716;32;20224;-85
2022/11/18 09:09:07;;;;;;;32.77;24.83;;;;;;;;;;4447529;32;20384;-83
2022/11/18 09:11:34;;;;;;;33.23;23.77;;;;;;;;;;4434070;32;20342;-87
2022/11/18 09:14:01;;;;;;;46.53;36.57;;;;;;;;;;4434173;32;20248;-85
2022/11/18 09:16:31;;;;;;;45.20;33.33;;;;;;;;;;4434092;32;20337;-84
2022/11/18 09:19:00;;;;;;;46.97;32.43;;;;;;;;;;4434581;32;20213;-85
2022/11/18 09:21:27;;;;;;;43.97;31.90;;;;;;;;;;4434405;32;20255;-85
2022/11/18 09:23:54;;;;;;;38.17;29.67;;;;;;;;;;4433836;32;20292;-85
2022/11/18 09:26:23;;;;;;;40.97;27.47;;;;;;;;;;4435744;32;20217;-86
2022/11/18 09:28:54;;;;;;;39.07;30.60;;;;;;;;;;4447131;32;20244;-85
2022/11/18 09:31:21;;;;;;;34.17;26.70;;;;;;;;;;4450954;32;20211;-88
2022/11/18 09:33:47;;;;;;;26.30;17.60;;;;;;;;;;4444789;32;20642;-87
2022/11/18 09:36:18;;;;;;;27.13;20.20;;;;;;;;;;4445377;32;20304;-85
2022/11/18 09:38:44;;;;;;;29.73;19.60;;;;;;;;;;4436799;32;20338;-84
2022/11/18 09:41:30;;;;;;;22.70;19.43;;;;;;;;;;4434380;32;20611;-85
2022/11/18 09:44:07;;;;;;;26.27;20.33;;;;;;;;;;4434030;32;20289;-85
2022/11/18 09:46:45;;;;;;;22.67;18.40;;;;;;;;;;4433818;32;20820;-85
2022/11/18 09:49:16;;;;;;;25.63;17.70;;;;;;;;;;4441151;32;20232;-85
2022/11/18 09:51:47;;;;;;;34.20;23.20;;;;;;;;;;4443129;32;20692;-89
2022/11/18 09:54:20;;;;;;;35.83;26.37;;;;;;;;;;4418044;32;20217;-86
2022/11/18 09:56:48;;;;;;;33.53;25.73;;;;;;;;;;4424187;32;20229;-86
2022/11/18 09:59:17;;;;;;;33.53;26.83;;;;;;;;;;4433429;32;20306;-83
2022/11/18 10:01:45;;;;;;;43.13;31.93;;;;;;;;;;4433846;32;20788;-90
2022/11/18 10:04:16;;;;;;;37.13;31.23;;;;;;;;;;4433505;32;20233;-81
2022/11/18 10:06:45;;;;;;;36.70;30.00;;;;;;;;;;4441762;32;20261;-86
2022/11/18 10:09:27;;;;;;;38.83;30.87;;;;;;;;;;4448706;32;20212;-85
2022/11/18 10:12:14;;;;;;;32.50;25.97;;;;;;;;;;4417598;32;20400;-82
2022/11/18 10:15:03;;;;;;;35.00;25.13;;;;;;;;;;4432792;32;20293;-83
2022/11/18 10:17:40;;;;;;;30.87;25.40;;;;;;;;;;4433302;32;20248;-81
2022/11/18 10:20:21;;;;;;;30.67;20.77;;;;;;;;;;4433729;32;20216;-80
2022/11/18 10:22:54;;;;;;;22.97;19.00;;;;;;;;;;4434011;32;20232;-86
2022/11/18 10:25:21;;;;;;;26.27;19.20;;;;;;;;;;4433646;32;20216;-81
2022/11/18 10:27:50;;;;;;;24.67;18.30;;;;;;;;;;4428035;32;20711;-80
2022/11/18 10:30:19;;;;;;;25.30;17.40;;;;;;;;;;4417593;32;20664;-81
2022/11/18 10:33:00;;;;;;;27.90;17.00;;;;;;;;;;4417704;32;20294;-87
2022/11/18 10:35:30;;;;;;;20.27;17.00;;;;;;;;;;4418243;32;20218;-83
2022/11/18 10:38:15;;;;;;;23.33;17.03;;;;;;;;;;4417627;32;20670;-82
2022/11/18 10:40:48;;;;;;;21.73;16.67;;;;;;;;;;4417989;32;20299;-80
2022/11/18 10:43:49;;;;;;;26.33;18.13;;;;;;;;;;4433086;32;20224;-82
2022/11/18 10:46:25;;;;;;;28.03;17.20;;;;;;;;;;4433032;32;20227;-78
2022/11/18 10:49:16;;;;;;;21.60;15.27;;;;;;;;;;4432833;32;20289;-81
2022/11/18 10:51:44;;;;;;;22.17;18.33;;;;;;;;;;4432935;32;20251;-80
2022/11/18 10:54:20;;;;;;;20.23;15.13;;;;;;;;;;4431215;32;20343;-82
2022/11/18 10:56:51;;;;;;;14.83;11.33;;;;;;;;;;4432570;32;20606;-87
2022/11/18 10:59:26;;;;;;;18.63;13.07;;;;;;;;;;4433040;32;20567;-84
2022/11/18 11:02:16;;;;;;;14.50;10.97;;;;;;;;;;4432933;32;20731;-81
2022/11/18 11:04:44;;;;;;;16.10;10.73;;;;;;;;;;4432465;32;20646;-83
2022/11/18 11:07:16;;;;;;;15.00;9.70;;;;;;;;;;4444068;32;20284;-87
2022/11/18 11:09:45;;;;;;;17.63;11.00;;;;;;;;;;4444408;32;20233;-83
2022/11/18 11:12:15;;;;;;;16.00;10.50;;;;;;;;;;4432410;32;20231;-81
2022/11/18 11:14:51;;;;;;;13.80;11.83;;;;;;;;;;4432801;32;20571;-83
2022/11/18 11:17:22;;;;;;;21.13;14.53;;;;;;;;;;4432803;32;20822;-83
2022/11/18 11:19:57;;;;;;;12.50;10.23;;;;;;;;;;4432545;32;20716;-82
2022/11/18 11:22:23;;;;;;;16.97;10.40;;;;;;;;;;4432565;32;20207;-83
2022/11/18 11:24:55;;;;;;;14.23;10.43;;;;;;;;;;4432415;32;20255;-81
2022/11/18 11:27:42;;;;;;;17.33;11.33;;;;;;;;;;4431107;32;20266;-81
2022/11/18 11:30:16;;;;;;;19.67;14.50;;;;;;;;;;4417447;32;20705;-82
2022/11/18 11:33:04;;;;;;;21.80;13.87;;;;;;;;;;4416625;32;20244;-85
2022/11/18 11:35:37;;;;;;;19.73;15.23;;;;;;;;;;4417559;32;20217;-82
2022/11/18 11:38:13;;;;;;;22.83;11.80;;;;;;;;;;4424625;32;20708;-83
2022/11/18 11:40:49;;;;;;;19.33;11.33;;;;;;;;;;4433078;32;20274;-85
2022/11/18 11:43:29;;;;;;;17.43;11.70;;;;;;;;;;4432880;32;20340;-83
2022/11/18 11:46:17;;;;;;;16.87;12.07;;;;;;;;;;4417996;32;20216;-83
2022/11/18 11:48:55;;;;;;;19.20;13.53;;;;;;;;;;4420443;32;20228;-86
2022/11/18 11:51:32;;;;;;;20.57;13.73;;;;;;;;;;4432594;32;20229;-79
2022/11/18 11:54:22;;;;;;;23.20;13.33;;;;;;;;;;4418667;32;20296;-82
2022/11/18 11:56:54;;;;;;;26.43;15.33;;;;;;;;;;4417517;32;20272;-82
2022/11/18 11:59:38;;;;;;;25.00;19.20;;;;;;;;;;4417573;32;20245;-83
2022/11/18 12:02:34;;;;;;;27.03;19.03;;;;;;;;;;4417811;32;20646;-82
2022/11/18 12:05:08;;;;;;;26.60;20.47;;;;;;;;;;4417288;32;20253;-82
2022/11/18 12:07:42;;;;;;;26.50;17.93;;;;;;;;;;4445341;32;20246;-82
2022/11/18 12:10:22;;;;;;;22.80;18.07;;;;;;;;;;4441960;32;20323;-78
2022/11/18 12:12:58;;;;;;;28.53;19.37;;;;;;;;;;4431927;32;20293;-80
2022/11/18 12:15:35;;;;;;;25.57;18.67;;;;;;;;;;4433275;32;20688;-77
2022/11/18 12:18:11;;;;;;;34.33;23.93;;;;;;;;;;4432707;32;20238;-78
2022/11/18 12:20:43;;;;;;;35.73;26.67;;;;;;;;;;4433026;32;20919;-81
2022/11/18 12:23:23;;;;;;;34.13;23.57;;;;;;;;;;4435214;32;20277;-83
2022/11/18 12:26:01;;;;;;;38.50;23.17;;;;;;;;;;4434907;32;20240;-79
2022/11/18 12:28:34;;;;;;;26.40;19.33;;;;;;;;;;4426043;32;20227;-78
2022/11/18 12:31:35;;;;;;;27.87;21.60;;;;;;;;;;4420023;32;20252;-85
2022/11/18 12:34:06;;;;;;;21.80;15.40;;;;;;;;;;4425011;32;20249;-78
2022/11/18 12:36:34;;;;;;;25.23;16.67;;;;;;;;;;4434911;32;20581;-78
2022/11/18 12:39:40;;;;;;;25.90;16.23;;;;;;;;;;4435450;32;20220;-78
2022/11/18 12:45:49;;;;;;;17.90;13.73;;;;;;;;;;4434868;32;20255;-82
2022/11/18 12:48:38;;;;;;;20.63;15.80;;;;;;;;;;4435007;32;20291;-87
2022/11/18 12:51:45;;;;;;;16.80;12.20;;;;;;;;;;4438737;32;20599;-81
2022/11/18 12:54:26;;;;;;;19.10;13.33;;;;;;;;;;4417881;32;20244;-82
2022/11/18 12:56:53;;;;;;;23.93;14.83;;;;;;;;;;4418865;32;20697;-83
2022/11/18 12:59:32;;;;;;;20.70;15.53;;;;;;;;;;4419029;32;20217;-82
2022/11/18 13:02:19;;;;;;;26.77;15.20;;;;;;;;;;4418270;32;20232;-83
2022/11/18 13:04:45;;;;;;;29.20;16.33;;;;;;;;;;4417385;32;20309;-81
2022/11/18 13:08:11;;;;;;;22.60;16.93;;;;;;;;;;4442786;32;20316;-90
2022/11/18 13:10:10;;;;;;;28.63;18.80;;;;;;;;;;4444722;32;20249;-80
2022/11/18 13:12:37;;;;;;;32.27;20.93;;;;;;;;;;4434731;32;20212;-81
2022/11/18 13:18:07;;;;;;;26.63;20.63;;;;;;;;;;4433838;32;20777;-83
2022/11/18 13:20:35;;;;;;;32.50;23.57;;;;;;;;;;4434316;32;20313;-81
2022/11/18 13:25:50;;;;;;;32.87;21.80;;;;;;;;;;4437499;32;20267;-84
2022/11/18 13:28:28;;;;;;;36.73;22.27;;;;;;;;;;4443472;32;20332;-81
2022/11/18 13:31:01;;;;;;;110.63;75.00;;;;;;;;;;4445658;32;20240;-86
2022/11/18 13:33:29;;;;;;;85.63;61.93;;;;;;;;;;4446925;32;20213;-84
2022/11/18 13:35:56;;;;;;;56.53;42.33;;;;;;;;;;4445956;32;20232;-86
2022/11/18 13:38:25;;;;;;;39.10;26.67;;;;;;;;;;4436154;32;20532;-87
2022/11/18 13:41:06;;;;;;;28.10;22.17;;;;;;;;;;4434676;32;20248;-89
2022/11/18 13:43:33;;;;;;;36.53;24.37;;;;;;;;;;4434283;32;20231;-81
2022/11/18 13:46:04;;;;;;;33.73;20.43;;;;;;;;;;4434132;32;20237;-84
2022/11/18 13:48:35;;;;;;;25.03;16.00;;;;;;;;;;4434201;32;20213;-87
2022/11/18 13:51:02;;;;;;;23.60;16.47;;;;;;;;;;4434236;32;20244;-82
2022/11/18 13:53:33;;;;;;;26.37;20.00;;;;;;;;;;4423073;32;20241;-84
2022/11/18 13:56:02;;;;;;;40.80;23.40;;;;;;;;;;4418518;32;20252;-89
2022/11/18 13:58:37;;;;;;;36.43;24.87;;;;;;;;;;4418583;32;20249;-88
2022/11/18 14:01:12;;;;;;;33.90;23.83;;;;;;;;;;4418906;32;20240;-85
2022/11/18 14:03:49;;;;;;;34.77;24.67;;;;;;;;;;4418991;32;20220;-87
2022/11/18 14:06:24;;;;;;;34.87;25.20;;;;;;;;;;4429747;32;20255;-86
2022/11/18 14:08:51;;;;;;;43.57;27.60;;;;;;;;;;4440926;32;20272;-82
2022/11/18 14:11:34;;;;;;;43.40;28.23;;;;;;;;;;4433270;32;20278;-83
2022/11/18 14:14:01;;;;;;;64.23;31.83;;;;;;;;;;4433571;32;20764;-86
2022/11/18 14:16:35;;;;;;;42.37;32.03;;;;;;;;;;4433831;32;20693;-88
2022/11/18 14:19:02;;;;;;;46.47;31.53;;;;;;;;;;4433621;32;20262;-92
2022/11/18 14:21:30;;;;;;;43.10;30.47;;;;;;;;;;4433548;32;20241;-84
2022/11/18 14:23:57;;;;;;;45.10;29.03;;;;;;;;;;4433420;32;20336;-82
2022/11/18 14:26:28;;;;;;;51.80;34.17;;;;;;;;;;4433182;32;20267;-86
2022/11/18 14:28:57;;;;;;;48.73;31.93;;;;;;;;;;4433586;32;20240;-85
2022/11/18 14:31:26;;;;;;;51.67;31.00;;;;;;;;;;4433544;32;20276;-85
2022/11/18 14:34:17;;;;;;;52.20;34.27;;;;;;;;;;4433295;32;20216;-81
2022/11/18 14:36:44;;;;;;;57.30;32.17;;;;;;;;;;4433553;32;20923;-82
2022/11/18 14:39:22;;;;;;;54.27;32.03;;;;;;;;;;4433486;32;20253;-83
2022/11/18 14:41:48;;;;;;;53.43;34.70;;;;;;;;;;4433762;32;20589;-83
2022/11/18 14:44:17;;;;;;;49.37;27.57;;;;;;;;;;4433177;32;20216;-82
2022/11/18 14:46:47;;;;;;;55.83;33.87;;;;;;;;;;4433639;32;20631;-84
2022/11/18 14:49:17;;;;;;;62.47;33.87;;;;;;;;;;4435328;32;20888;-83
2022/11/18 14:51:43;;;;;;;54.70;33.70;;;;;;;;;;4440099;32;20241;-81
2022/11/18 14:54:13;;;;;;;42.77;25.53;;;;;;;;;;4423945;32;20281;-81
2022/11/18 14:56:40;;;;;;;38.03;18.00;;;;;;;;;;4426421;32;20240;-82
2022/11/18 14:59:07;;;;;;;52.60;32.73;;;;;;;;;;4423825;32;20218;-82
2022/11/18 15:01:34;;;;;;;89.67;55.37;;;;;;;;;;4427163;32;20229;-81
2022/11/18 15:04:00;;;;;;;83.47;55.67;;;;;;;;;;4419985;32;20217;-83